Wausau Downtown Airport
KAUW : rendu visible

Aérodrome :











RETROUVEZ-NOUS SUR...

 
LOGIN :

S'inscrire | Disclaimer

   EN    FR    IT 

 









Légende :    VFR   VFR Marginal   IFR   IFR Intensif   IFR Très Intensif
Visi : 
Plafond : 
>= 8 km
>= 3000ft
5 à 8 km
1000 à 3000 ft
1500m à 5 km
500 à 1000 ft
800 à 1500m
200 à 500 ft
< 800m
< 200 ft
Symboles :   Orages  Brouillard  Fortes neiges  Fortes précipitations  Vent > 20 kt






- Altitude de l'aérodrome : 1201 ft


KAUW - Wausau Downtown

DERNIER METAR :
  • 220054Z AUTO 24009G15KT 10SM CLR M01/M07 A3008 RMK AO2 SLP212 T10061072

METARs EXPIRÉS :
  • 212354Z AUTO 25010G18KT 10SM CLR 01/M07 A3007 RMK AO2 PK WND 22027/2321 SLP209 T00061072 10028 21022 56008
  • 212254Z AUTO 25014G26KT 10SM CLR 02/M08 A3008 RMK AO2 PK WND 24029/2212 SLP211 T00171083

TAF KAUW
Valide du 21 à 18h jusqu'au 22 à 18h UTC


211720Z 2118/2218 23014G26KT P6SM SKC WS015/25045KT
FM211900 24013G23KT P6SM SKC
FM212300 24010G17KT P6SM SKC WS020/33040KT
FM220400 25006KT P6SM FEW200



MET'MAP, la Météo Aéronautique d'un coup d'oeil ! - Copyright ORBIFLY Décembre 2007 - Disclaimer

ORBIFLY MET'MAP TEAM :

Programmation & Développement : Alexandra Zaïnal
Sur une idée originale de : Baudouin d'Aumeries
Assistance à la programmation : Marc-Olivier Méhu
Soutien technique & logistique : Manuel Goepfert

Contact : metmap@orbifly.com




SOURCES & CREDITS :

   NOAA       Earth
Advisory